LIML/LIN METAR and TAF weather

Enter ICAO airport designator
Station Type Date Time Source
LIML METAR 2018/12/17 02:20 UTC NOAA

LIML 170220Z 02002KT 5000 BR BKN025 02/01 Q1018 NOSIG


Station Type Date Time Source
LIML Decoded METAR 2018/12/17 02:20 UTC NOAA

Milano / Linate, Italy (LIML) 45-26N 009-17E 103M
Dec 16, 2018 - 09:20 PM EST / 2018.12.17 0220 UTC
Wind: from the NNE (020 degrees) at 2 MPH (2 KT):0
Visibility: 3 mile(s):0
Sky conditions: mostly cloudy
Weather: mist
Temperature: 35 F (2 C)
Dew Point: 33 F (1 C)
Relative Humidity: 93%
Pressure (altimeter): 30.06 in. Hg (1018 hPa)
ob: LIML 170220Z 02002KT 5000 BR BKN025 02/01 Q1018 NOSIG
cycle: 2

Station Type Date Time Source
LIML TAF 2018/12/16 18:21 UTC NOAA

TAF LIML 161700Z 1618/1718 VRB05KT 4000 BR SCT020 BKN050
TEMPO 1618/1706 1500 SN BKN008
BECMG 1710/1712 7000


Example: see airport list